Time;durP1;ratioP1;P1;durP2;ratioP2;P2;SDS_P1;SDS_P2;PMS_P1;PMS_P2;Temp;Humidity;BMP_temperature;BMP_pressure;BME280_temperature;BME280_humidity;BME280_pressure;Samples;Min_cycle;Max_cycle;Signal;HPM_P1;HPM_P2
2023/06/01 00:02:26;;;;;;;5.60;4.10;;;14.80;99.90;;;;;;4930610;29;20247;-60
2023/06/01 00:04:54;;;;;;;6.87;4.47;;;14.70;99.90;;;;;;4927874;29;20211;-60
2023/06/01 00:07:21;;;;;;;7.03;4.20;;;14.70;99.90;;;;;;4930986;29;20764;-66
2023/06/01 00:09:48;;;;;;;7.73;4.33;;;14.70;99.90;;;;;;4929728;29;20208;-66
2023/06/01 00:12:15;;;;;;;7.83;3.97;;;14.70;99.90;;;;;;4930885;29;20196;-66
2023/06/01 00:14:42;;;;;;;9.47;4.93;;;14.70;99.90;;;;;;4930245;29;20573;-66
2023/06/01 00:17:09;;;;;;;8.27;4.07;;;14.70;99.90;;;;;;4928979;29;20274;-60
2023/06/01 00:19:38;;;;;;;10.90;5.37;;;14.60;99.90;;;;;;4928903;29;20218;-60
2023/06/01 00:22:07;;;;;;;7.10;4.70;;;14.70;99.90;;;;;;4919707;29;20227;-60
2023/06/01 00:24:34;;;;;;;8.17;5.20;;;14.70;99.90;;;;;;4933069;29;20192;-59
2023/06/01 00:27:01;;;;;;;7.67;3.80;;;14.60;99.90;;;;;;4934794;29;20196;-67
2023/06/01 00:29:29;;;;;;;7.97;4.80;;;14.60;99.90;;;;;;4935330;29;20263;-68
2023/06/01 00:31:56;;;;;;;8.40;4.07;;;14.70;99.90;;;;;;4915637;29;20211;-69
2023/06/01 00:34:23;;;;;;;7.97;4.90;;;14.70;99.90;;;;;;4918215;29;20206;-69
2023/06/01 00:36:50;;;;;;;8.47;4.80;;;14.60;99.90;;;;;;4898945;29;20619;-69
2023/06/01 00:39:18;;;;;;;9.03;4.43;;;14.60;99.90;;;;;;4918723;29;20200;-68
2023/06/01 00:41:45;;;;;;;7.57;4.90;;;14.50;99.90;;;;;;4923974;29;20196;-71
2023/06/01 00:44:12;;;;;;;7.53;4.57;;;14.50;99.90;;;;;;4918818;29;20199;-70
2023/06/01 00:46:39;;;;;;;10.43;4.37;;;14.50;99.90;;;;;;4931343;29;20837;-61
2023/06/01 00:49:07;;;;;;;6.23;3.83;;;14.40;99.90;;;;;;4932476;29;20615;-62
2023/06/01 00:51:35;;;;;;;4.93;3.70;;;14.40;99.90;;;;;;4931049;29;20210;-61
2023/06/01 00:54:02;;;;;;;10.37;3.87;;;14.40;99.90;;;;;;4931210;29;20198;-60
2023/06/01 00:56:31;;;;;;;6.40;3.43;;;14.50;99.90;;;;;;4930382;29;20199;-61
2023/06/01 00:58:59;;;;;;;6.07;3.73;;;14.60;99.90;;;;;;4932434;29;20191;-60
2023/06/01 01:01:26;;;;;;;6.83;4.03;;;14.60;99.90;;;;;;4925930;29;20207;-67
2023/06/01 01:03:57;;;;;;;6.80;3.87;;;14.70;99.90;;;;;;4921232;23;20258;-56
2023/06/01 01:06:25;;;;;;;10.13;4.70;;;14.70;99.90;;;;;;4874892;29;20220;-56
2023/06/01 01:09:10;;;;;;;6.30;3.90;;;14.80;99.90;;;;;;4895675;29;20741;-56
2023/06/01 01:11:40;;;;;;;6.20;4.00;;;15.00;99.90;;;;;;4887996;29;20673;-56
2023/06/01 01:14:25;;;;;;;9.57;5.40;;;15.00;99.90;;;;;;4849493;29;20289;-55
2023/06/01 01:17:02;;;;;;;9.73;5.13;;;15.10;99.90;;;;;;4879840;29;20204;-55
2023/06/01 01:19:34;;;;;;;8.90;4.60;;;15.10;99.90;;;;;;4878796;29;21021;-56
2023/06/01 01:22:24;;;;;;;7.67;5.37;;;15.00;99.90;;;;;;4893220;29;20200;-56
2023/06/01 01:25:12;;;;;;;6.33;4.53;;;14.80;99.90;;;;;;4902083;29;20199;-60
2023/06/01 01:27:54;;;;;;;9.97;6.20;;;14.70;99.90;;;;;;4879860;29;20205;-55
2023/06/01 01:30:22;;;;;;;9.33;5.60;;;14.60;99.90;;;;;;4900873;29;20697;-57
2023/06/01 01:32:51;;;;;;;6.10;4.63;;;14.60;99.90;;;;;;4885076;29;20193;-59
2023/06/01 01:35:18;;;;;;;5.30;4.80;;;14.80;99.90;;;;;;4870176;29;20238;-56
2023/06/01 01:37:53;;;;;;;6.90;4.97;;;15.10;99.90;;;;;;4882222;29;20200;-56
2023/06/01 01:40:23;;;;;;;7.97;5.50;;;15.10;99.90;;;;;;4890795;29;20239;-56
2023/06/01 01:42:52;;;;;;;13.50;7.70;;;15.00;99.90;;;;;;4878835;29;20336;-59
2023/06/01 01:45:20;;;;;;;10.93;6.50;;;14.90;99.90;;;;;;4882402;29;20520;-56
2023/06/01 01:48:13;;;;;;;8.27;5.23;;;14.80;99.90;;;;;;4884469;29;20201;-56
2023/06/01 01:50:53;;;;;;;9.03;5.80;;;14.90;99.90;;;;;;4881767;29;20208;-56
2023/06/01 01:53:22;;;;;;;11.97;7.30;;;14.90;99.90;;;;;;4887140;29;20205;-56
2023/06/01 01:55:52;;;;;;;9.37;6.50;;;14.80;99.90;;;;;;4882569;29;20393;-56
2023/06/01 01:58:19;;;;;;;10.10;6.43;;;14.60;99.90;;;;;;4884880;29;20215;-55
2023/06/01 02:00:47;;;;;;;11.23;6.00;;;14.70;99.90;;;;;;4883562;29;20293;-56
2023/06/01 02:03:18;;;;;;;11.63;6.37;;;14.80;99.90;;;;;;4878519;29;21071;-59
2023/06/01 02:05:46;;;;;;;11.77;6.93;;;15.00;99.90;;;;;;4893693;29;20690;-55
2023/06/01 02:08:13;;;;;;;17.43;7.80;;;14.80;99.90;;;;;;4890028;29;20211;-55
2023/06/01 02:10:42;;;;;;;15.27;7.53;;;14.90;99.90;;;;;;4886132;29;20504;-57
2023/06/01 02:13:12;;;;;;;9.53;6.27;;;15.00;99.90;;;;;;4888385;29;20205;-56
2023/06/01 02:15:39;;;;;;;13.77;6.67;;;15.20;99.90;;;;;;4873071;29;20518;-57
2023/06/01 02:18:07;;;;;;;10.23;6.33;;;15.50;99.90;;;;;;4883174;29;20217;-57
2023/06/01 02:20:34;;;;;;;10.67;6.70;;;15.60;99.90;;;;;;4900724;29;20332;-57
2023/06/01 02:23:01;;;;;;;14.50;8.00;;;15.60;99.90;;;;;;4890515;29;20292;-56
2023/06/01 02:25:28;;;;;;;7.53;5.53;;;15.60;99.90;;;;;;4877311;29;20248;-57
2023/06/01 02:27:55;;;;;;;11.57;7.97;;;15.60;99.90;;;;;;4899860;29;22689;-57
2023/06/01 02:30:22;;;;;;;13.27;7.37;;;15.60;99.90;;;;;;4910082;29;20214;-57
2023/06/01 02:32:49;;;;;;;10.43;7.30;;;15.40;99.90;;;;;;4882934;29;20208;-59
2023/06/01 02:35:20;;;;;;;9.60;6.83;;;15.50;99.90;;;;;;4880492;29;20233;-57
2023/06/01 02:37:48;;;;;;;10.87;7.73;;;15.40;99.90;;;;;;4901206;29;20309;-61
2023/06/01 02:40:16;;;;;;;15.37;8.23;;;15.30;99.90;;;;;;4886633;29;20240;-61
2023/06/01 02:42:43;;;;;;;13.03;8.07;;;14.90;99.90;;;;;;4887784;29;20245;-61
2023/06/01 02:45:10;;;;;;;15.83;8.33;;;15.00;99.90;;;;;;4883914;29;20240;-64
2023/06/01 02:47:37;;;;;;;12.40;8.67;;;14.80;99.90;;;;;;4896483;29;20283;-60
2023/06/01 02:50:05;;;;;;;15.33;9.13;;;14.70;99.90;;;;;;4900632;29;20312;-61
2023/06/01 02:52:36;;;;;;;14.60;8.60;;;14.90;99.90;;;;;;4886160;29;20690;-62
2023/06/01 02:55:05;;;;;;;17.50;9.00;;;14.70;99.90;;;;;;4877809;29;20291;-61
2023/06/01 02:57:47;;;;;;;19.93;12.23;;;14.60;99.90;;;;;;4877278;29;20656;-64
2023/06/01 03:00:17;;;;;;;21.57;11.63;;;14.40;99.90;;;;;;4886481;29;20304;-68
2023/06/01 03:02:48;;;;;;;24.43;13.10;;;14.00;99.90;;;;;;4873057;29;20216;-60
2023/06/01 03:05:16;;;;;;;24.40;12.13;;;13.50;99.90;;;;;;4884083;29;20273;-62
2023/06/01 03:07:48;;;;;;;22.33;13.27;;;13.60;99.90;;;;;;4888045;29;20249;-61
2023/06/01 03:10:24;;;;;;;18.63;12.27;;;13.80;99.90;;;;;;4879381;29;20218;-60
2023/06/01 03:13:11;;;;;;;19.37;10.70;;;13.20;99.90;;;;;;4874977;29;20798;-61
2023/06/01 03:15:38;;;;;;;22.63;13.53;;;13.10;99.90;;;;;;4885640;29;20191;-61
2023/06/01 03:18:11;;;;;;;20.17;13.23;;;13.20;99.90;;;;;;4885123;29;20544;-60
2023/06/01 03:20:38;;;;;;;19.53;11.53;;;13.10;99.90;;;;;;4899887;29;20208;-61
2023/06/01 03:23:06;;;;;;;21.03;13.03;;;13.00;99.90;;;;;;4885496;29;20204;-61
2023/06/01 03:25:33;;;;;;;23.83;13.47;;;13.00;99.90;;;;;;4896699;29;20220;-60
2023/06/01 03:28:01;;;;;;;22.63;11.70;;;13.20;99.90;;;;;;4870487;29;20671;-61
2023/06/01 03:30:28;;;;;;;20.03;11.80;;;13.20;99.90;;;;;;4890755;29;20727;-60
2023/06/01 03:32:55;;;;;;;17.97;11.10;;;13.30;99.90;;;;;;4878698;29;20209;-60
2023/06/01 03:35:22;;;;;;;22.57;13.07;;;13.40;99.90;;;;;;4878453;29;20621;-60
2023/06/01 03:37:50;;;;;;;19.40;11.43;;;13.70;99.90;;;;;;4879655;29;20268;-60
2023/06/01 03:40:19;;;;;;;16.80;11.80;;;13.50;99.90;;;;;;4876810;29;20825;-69
2023/06/01 03:42:49;;;;;;;19.10;12.20;;;13.50;99.90;;;;;;4882298;29;20224;-60
2023/06/01 03:45:16;;;;;;;19.93;12.57;;;13.70;99.90;;;;;;4906325;29;20204;-60
2023/06/01 03:47:44;;;;;;;19.27;12.00;;;13.70;99.90;;;;;;4882927;29;20205;-60
2023/06/01 03:50:11;;;;;;;17.97;12.63;;;13.80;99.90;;;;;;4906879;29;20554;-63
2023/06/01 03:52:39;;;;;;;17.93;10.87;;;13.60;99.90;;;;;;4890683;29;20204;-60
2023/06/01 03:55:12;;;;;;;15.73;10.33;;;13.60;99.90;;;;;;4884443;29;20251;-60
2023/06/01 03:58:02;;;;;;;19.30;10.83;;;13.90;99.90;;;;;;4897664;29;20581;-60
2023/06/01 04:00:30;;;;;;;19.80;11.23;;;14.40;99.90;;;;;;4879977;29;20281;-60
2023/06/01 04:03:00;;;;;;;18.63;11.63;;;14.00;99.90;;;;;;4887613;29;20612;-61
2023/06/01 04:05:27;;;;;;;21.57;11.57;;;13.60;99.90;;;;;;4903718;29;20200;-60
2023/06/01 04:07:55;;;;;;;17.13;11.90;;;13.50;99.90;;;;;;4886865;29;20204;-62
2023/06/01 04:10:23;;;;;;;25.23;12.47;;;13.40;99.90;;;;;;4896802;29;20216;-61
2023/06/01 04:12:50;;;;;;;20.40;11.80;;;13.40;99.90;;;;;;4902826;29;20426;-62
2023/06/01 04:15:20;;;;;;;18.80;12.20;;;13.10;99.90;;;;;;4887984;29;20203;-62
2023/06/01 04:17:47;;;;;;;17.77;11.60;;;13.30;99.90;;;;;;4881090;29;20231;-61
2023/06/01 04:20:16;;;;;;;18.27;11.43;;;13.70;99.90;;;;;;4907011;29;20200;-61
2023/06/01 04:22:45;;;;;;;18.03;11.47;;;13.50;99.90;;;;;;4888167;29;20287;-61
2023/06/01 04:25:17;;;;;;;22.43;12.27;;;13.70;99.90;;;;;;4888194;29;20911;-61
2023/06/01 04:27:51;;;;;;;16.03;10.70;;;14.10;99.90;;;;;;4884433;29;20201;-61
2023/06/01 04:30:19;;;;;;;15.83;11.23;;;14.60;99.90;;;;;;4883550;29;20196;-61
2023/06/01 04:32:47;;;;;;;18.03;11.27;;;15.00;99.90;;;;;;4901443;29;20607;-61
2023/06/01 04:35:17;;;;;;;15.60;11.13;;;15.10;99.90;;;;;;4880780;29;20579;-61
2023/06/01 04:37:44;;;;;;;18.70;10.30;;;15.10;99.90;;;;;;4886488;29;20349;-61
2023/06/01 04:40:13;;;;;;;14.30;9.87;;;14.90;99.90;;;;;;4878639;29;20212;-61
2023/06/01 04:42:45;;;;;;;13.83;10.00;;;14.50;99.90;;;;;;4862711;29;20664;-61
2023/06/01 04:45:13;;;;;;;17.43;10.77;;;14.00;99.90;;;;;;4883785;29;20287;-63
2023/06/01 04:47:44;;;;;;;16.83;10.13;;;14.00;99.90;;;;;;4881764;29;20311;-61
2023/06/01 04:50:21;;;;;;;17.60;10.40;;;14.00;99.90;;;;;;4879178;29;20201;-60
2023/06/01 04:52:49;;;;;;;14.57;10.03;;;13.90;99.90;;;;;;4891974;29;20224;-60
2023/06/01 04:55:16;;;;;;;15.33;10.43;;;14.00;99.90;;;;;;4878654;29;20229;-66
2023/06/01 04:57:44;;;;;;;14.80;9.13;;;13.90;99.90;;;;;;4878454;29;20573;-61
2023/06/01 05:00:13;;;;;;;16.27;9.80;;;14.00;99.90;;;;;;4878118;29;20197;-61
2023/06/01 05:02:43;;;;;;;15.27;9.90;;;14.60;99.90;;;;;;4898778;29;20204;-61
2023/06/01 05:05:12;;;;;;;14.67;8.70;;;15.10;99.90;;;;;;4889046;29;20268;-64
2023/06/01 05:07:43;;;;;;;30.23;10.87;;;15.40;99.90;;;;;;4880543;29;20939;-64
2023/06/01 05:10:12;;;;;;;54.27;11.13;;;15.80;99.90;;;;;;4885136;29;20253;-61
2023/06/01 05:12:44;;;;;;;50.23;10.77;;;16.00;99.90;;;;;;4877608;29;20197;-62
2023/06/01 05:15:13;;;;;;;44.83;10.57;;;16.00;99.90;;;;;;4863218;29;20702;-61
2023/06/01 05:17:40;;;;;;;16.53;9.67;;;16.00;99.90;;;;;;4875972;29;20239;-63
2023/06/01 05:20:11;;;;;;;14.60;9.30;;;15.70;99.90;;;;;;4874928;29;20213;-64
2023/06/01 05:22:41;;;;;;;13.20;8.37;;;16.00;99.90;;;;;;4874360;29;20213;-63
2023/06/01 05:25:08;;;;;;;12.83;8.90;;;16.10;99.90;;;;;;4876777;29;20208;-62
2023/06/01 05:27:36;;;;;;;16.77;8.90;;;16.30;99.90;;;;;;4871285;29;20194;-63
2023/06/01 05:30:05;;;;;;;15.23;9.23;;;15.80;99.90;;;;;;4876243;29;20291;-64
2023/06/01 05:32:32;;;;;;;16.93;9.73;;;15.40;99.90;;;;;;4876756;29;20220;-60
2023/06/01 05:35:10;;;;;;;15.23;8.60;;;14.40;99.90;;;;;;4873126;29;20209;-60
2023/06/01 05:37:38;;;;;;;13.13;9.57;;;14.60;99.90;;;;;;4857924;29;20193;-63
2023/06/01 05:40:11;;;;;;;16.77;9.57;;;14.70;99.90;;;;;;4892563;29;20205;-62
2023/06/01 05:42:39;;;;;;;14.17;9.50;;;14.90;99.90;;;;;;4891669;29;20726;-62
2023/06/01 05:45:07;;;;;;;14.17;9.83;;;15.40;99.90;;;;;;4883568;29;20635;-61
2023/06/01 05:47:34;;;;;;;17.40;10.10;;;15.10;99.90;;;;;;4886762;29;20209;-61
2023/06/01 05:50:02;;;;;;;15.97;10.83;;;14.60;99.90;;;;;;4873749;29;20257;-60
2023/06/01 05:52:30;;;;;;;18.07;11.27;;;13.70;99.90;;;;;;4888569;29;20223;-55
2023/06/01 05:54:58;;;;;;;17.70;11.13;;;13.50;99.90;;;;;;4872920;29;20580;-60
2023/06/01 05:57:25;;;;;;;14.47;9.73;;;13.70;99.90;;;;;;4864040;29;20226;-59
2023/06/01 05:59:53;;;;;;;15.10;10.63;;;14.20;99.90;;;;;;4870090;29;20837;-57
2023/06/01 06:02:20;;;;;;;14.43;10.07;;;14.90;99.90;;;;;;4870995;29;20221;-56
2023/06/01 06:04:47;;;;;;;14.47;9.70;;;14.60;99.90;;;;;;4892818;29;20276;-57
2023/06/01 06:07:14;;;;;;;17.23;10.00;;;13.90;99.90;;;;;;4875207;29;20563;-56
2023/06/01 06:09:41;;;;;;;15.43;10.67;;;14.30;99.90;;;;;;4880795;29;20205;-56
2023/06/01 06:12:08;;;;;;;14.43;9.83;;;14.90;99.90;;;;;;4884437;29;20235;-55
2023/06/01 06:14:36;;;;;;;27.70;10.70;;;15.40;99.90;;;;;;4877249;29;20204;-55
2023/06/01 06:17:03;;;;;;;19.30;9.57;;;15.70;99.90;;;;;;4888480;29;20586;-56
2023/06/01 06:19:30;;;;;;;23.73;9.87;;;16.40;99.90;;;;;;4880407;29;20204;-56
2023/06/01 06:21:57;;;;;;;12.50;9.33;;;16.60;99.90;;;;;;4909103;29;20206;-56
2023/06/01 06:24:24;;;;;;;12.13;9.87;;;16.60;99.90;;;;;;4872444;29;20213;-56
2023/06/01 06:26:52;;;;;;;18.00;12.35;;;16.80;99.90;;;;;;4892288;29;20211;-56
2023/06/01 06:29:19;;;;;;;15.00;9.97;;;16.70;99.90;;;;;;4893584;29;20536;-56
2023/06/01 06:31:46;;;;;;;33.53;12.73;;;17.10;99.90;;;;;;4893650;29;20288;-56
2023/06/01 06:34:13;;;;;;;15.02;10.07;;;17.00;99.90;;;;;;4890853;29;20204;-56
2023/06/01 06:36:40;;;;;;;12.70;9.25;;;17.10;99.90;;;;;;4874198;29;20212;-56
2023/06/01 06:39:07;;;;;;;13.90;9.18;;;16.80;99.90;;;;;;4888642;29;20300;-56
2023/06/01 06:41:34;;;;;;;11.90;9.07;;;16.60;99.90;;;;;;4885043;29;20209;-70
2023/06/01 06:44:01;;;;;;;15.50;9.18;;;16.80;99.90;;;;;;4866899;29;20630;-70
2023/06/01 06:46:28;;;;;;;14.40;9.10;;;16.80;99.90;;;;;;4881315;29;20206;-70
2023/06/01 06:48:56;;;;;;;13.57;9.45;;;16.20;99.90;;;;;;4885904;29;20567;-71
2023/06/01 06:51:23;;;;;;;13.82;10.48;;;16.60;99.90;;;;;;4872610;29;20730;-70
2023/06/01 06:53:50;;;;;;;17.00;9.80;;;16.40;99.90;;;;;;4871388;29;20537;-70
2023/06/01 06:56:17;;;;;;;14.35;9.75;;;16.20;99.90;;;;;;4884591;29;20205;-70
2023/06/01 06:58:45;;;;;;;13.43;9.48;;;16.80;99.90;;;;;;4889396;29;20206;-70
2023/06/01 07:01:29;;;;;;;15.57;9.25;;;17.20;99.90;;;;;;4887191;29;20208;-70
2023/06/01 07:03:56;;;;;;;19.30;11.60;;;17.30;99.90;;;;;;4869933;29;20331;-70
2023/06/01 07:06:23;;;;;;;16.35;10.27;;;17.40;99.90;;;;;;4856375;29;20204;-70
2023/06/01 07:08:51;;;;;;;14.82;9.73;;;17.40;99.90;;;;;;4884392;29;20212;-73
2023/06/01 07:11:18;;;;;;;13.88;8.38;;;17.00;99.90;;;;;;4885239;29;20223;-71
2023/06/01 07:13:45;;;;;;;24.20;9.52;;;17.10;99.90;;;;;;4884169;29;20689;-71
2023/06/01 07:16:13;;;;;;;22.52;9.13;;;17.60;99.90;;;;;;4886093;29;20217;-71
2023/06/01 07:18:41;;;;;;;99.93;10.07;;;16.90;99.90;;;;;;4870641;29;20616;-71
2023/06/01 07:21:08;;;;;;;16.20;7.13;;;15.70;99.90;;;;;;4887434;29;20197;-73
2023/06/01 07:23:35;;;;;;;14.63;6.77;;;15.30;99.90;;;;;;4888444;29;20247;-71
2023/06/01 07:26:02;;;;;;;8.70;7.10;;;15.60;99.90;;;;;;4871868;29;20200;-70
2023/06/01 07:28:30;;;;;;;12.50;6.45;;;15.70;99.90;;;;;;4888839;29;20676;-71
2023/06/01 07:30:57;;;;;;;34.30;19.45;;;15.70;99.90;;;;;;4887575;29;20190;-70
2023/06/01 07:33:26;;;;;;;10.67;6.47;;;16.30;99.90;;;;;;4886693;29;20675;-70
2023/06/01 07:35:53;;;;;;;25.15;13.80;;;16.30;99.90;;;;;;4887366;29;20204;-70
2023/06/01 07:38:20;;;;;;;20.52;11.02;;;16.60;99.90;;;;;;4886839;29;20209;-70
2023/06/01 07:40:47;;;;;;;15.40;9.95;;;17.40;99.90;;;;;;4881136;29;20257;-72
2023/06/01 07:43:14;;;;;;;11.45;7.20;;;17.20;99.90;;;;;;4851410;29;20225;-70
2023/06/01 07:45:41;;;;;;;11.20;5.55;;;17.10;99.90;;;;;;4863103;29;20251;-70
2023/06/01 07:48:08;;;;;;;42.72;8.57;;;16.60;99.90;;;;;;4869097;29;20297;-64
2023/06/01 07:50:37;;;;;;;15.50;7.35;;;16.50;99.90;;;;;;4885405;29;20283;-65
2023/06/01 07:53:04;;;;;;;19.90;7.20;;;17.00;99.90;;;;;;4884351;29;20263;-65
2023/06/01 07:55:31;;;;;;;45.95;7.70;;;17.80;99.90;;;;;;4884761;29;20215;-71
2023/06/01 07:57:58;;;;;;;16.88;6.78;;;17.50;99.90;;;;;;4872033;29;20208;-67
2023/06/01 08:00:26;;;;;;;10.45;6.47;;;17.40;99.90;;;;;;4873141;29;20265;-69
2023/06/01 08:02:53;;;;;;;12.10;6.57;;;17.60;99.90;;;;;;4886103;29;20617;-66
2023/06/01 08:05:20;;;;;;;11.68;6.07;;;18.10;99.90;;;;;;4870277;29;20269;-66
2023/06/01 08:07:48;;;;;;;9.35;6.20;;;19.10;99.90;;;;;;4885575;29;20213;-66
2023/06/01 08:10:16;;;;;;;13.80;7.40;;;19.70;99.90;;;;;;4872467;29;20209;-66
2023/06/01 08:12:43;;;;;;;13.38;6.00;;;19.60;99.90;;;;;;4879388;29;20281;-71
2023/06/01 08:15:15;;;;;;;17.30;6.40;;;19.90;99.90;;;;;;4871780;29;20258;-71
2023/06/01 08:17:43;;;;;;;10.07;5.70;;;20.80;99.90;;;;;;4871554;29;20594;-71
2023/06/01 08:20:11;;;;;;;28.98;8.52;;;20.20;99.90;;;;;;4889289;29;20300;-71
2023/06/01 08:22:38;;;;;;;74.25;7.40;;;19.90;99.90;;;;;;4882507;29;20294;-71
2023/06/01 08:25:05;;;;;;;13.68;5.93;;;19.50;99.90;;;;;;4882603;29;20548;-71
2023/06/01 08:27:32;;;;;;;12.32;5.13;;;18.60;99.90;;;;;;4870586;29;20693;-71
2023/06/01 08:29:59;;;;;;;7.80;4.18;;;20.20;99.90;;;;;;4886247;29;20212;-73
2023/06/01 08:32:26;;;;;;;20.05;6.72;;;21.30;99.90;;;;;;4885646;29;20217;-71
2023/06/01 08:34:53;;;;;;;14.15;6.25;;;21.60;99.90;;;;;;4890642;29;20566;-71
2023/06/01 08:37:21;;;;;;;9.48;6.10;;;21.60;99.90;;;;;;4873206;29;20212;-71
2023/06/01 08:39:47;;;;;;;8.10;5.50;;;21.40;99.90;;;;;;4873314;29;21302;-71
2023/06/01 08:42:33;;;;;;;8.00;5.07;;;20.90;99.90;;;;;;4891187;29;20209;-70
2023/06/01 08:45:05;;;;;;;24.10;6.40;;;20.70;99.90;;;;;;4886966;29;20201;-72
2023/06/01 08:47:32;;;;;;;9.57;5.72;;;21.30;99.90;;;;;;4858067;29;20209;-71
2023/06/01 08:50:00;;;;;;;17.63;5.60;;;21.70;99.90;;;;;;4887717;29;20754;-71
2023/06/01 08:52:31;;;;;;;11.43;4.68;;;22.10;99.90;;;;;;4873863;29;20309;-71
2023/06/01 08:55:00;;;;;;;18.98;5.57;;;23.40;99.90;;;;;;4883794;29;20265;-71
2023/06/01 08:57:29;;;;;;;48.10;7.47;;;23.70;99.90;;;;;;4875547;29;20679;-72
2023/06/01 08:59:58;;;;;;;18.65;6.53;;;22.00;99.90;;;;;;4890733;29;20298;-71
2023/06/01 09:02:27;;;;;;;15.75;5.00;;;21.60;99.90;;;;;;4890761;29;20205;-71
2023/06/01 09:04:54;;;;;;;9.02;3.90;;;22.70;99.90;;;;;;4888211;29;20247;-71
2023/06/01 09:07:22;;;;;;;14.25;5.85;;;24.10;99.90;;;;;;4890114;29;20288;-72
2023/06/01 09:09:49;;;;;;;6.82;3.95;;;25.10;99.90;;;;;;4888033;29;20212;-71
2023/06/01 09:12:30;;;;;;;8.82;4.50;;;25.50;99.90;;;;;;4888055;29;20221;-71
2023/06/01 09:15:08;;;;;;;10.27;5.30;;;25.40;99.90;;;;;;4886343;29;20194;-71
2023/06/01 09:17:35;;;;;;;4.18;3.65;;;24.70;99.90;;;;;;4872723;29;20295;-72
2023/06/01 09:20:04;;;;;;;10.32;5.10;;;23.90;99.90;;;;;;4888618;29;20209;-72
2023/06/01 09:22:45;;;;;;;4.93;3.67;;;24.00;99.90;;;;;;4889522;29;20205;-71
2023/06/01 09:25:14;;;;;;;28.08;5.40;;;22.80;99.90;;;;;;4889230;29;20230;-71
2023/06/01 09:27:46;;;;;;;7.90;4.80;;;20.50;99.90;;;;;;4888486;29;20200;-72
2023/06/01 09:30:14;;;;;;;20.08;5.15;;;20.60;99.90;;;;;;4873114;29;20219;-71
2023/06/01 09:32:42;;;;;;;7.93;4.65;;;20.10;99.90;;;;;;4887266;29;20223;-71
2023/06/01 09:35:09;;;;;;;10.77;6.75;;;20.50;99.90;;;;;;4888172;29;20201;-73
2023/06/01 09:37:38;;;;;;;10.60;6.90;;;20.00;99.90;;;;;;4888602;29;20212;-72
2023/06/01 09:40:23;;;;;;;11.52;5.50;;;18.50;99.90;;;;;;4875143;29;20209;-73
2023/06/01 09:42:51;;;;;;;9.70;4.90;;;19.20;99.90;;;;;;4884172;29;20213;-71
2023/06/01 09:45:23;;;;;;;13.50;4.60;;;20.00;99.90;;;;;;4872693;29;20771;-74
2023/06/01 09:47:51;;;;;;;15.35;4.90;;;20.70;99.90;;;;;;4874569;29;20217;-75
2023/06/01 09:50:38;;;;;;;7.15;3.75;;;19.40;99.90;;;;;;4889833;29;20223;-74
2023/06/01 09:53:05;;;;;;;11.07;4.00;;;20.20;99.90;;;;;;4859636;29;20232;-74
2023/06/01 09:55:32;;;;;;;8.45;5.63;;;21.10;99.90;;;;;;4869546;29;20228;-74
2023/06/01 09:58:20;;;;;;;9.43;3.90;;;21.20;99.90;;;;;;4881994;29;20208;-74
2023/06/01 10:00:48;;;;;;;10.38;4.80;;;20.90;99.90;;;;;;4889455;29;20196;-71
2023/06/01 10:03:17;;;;;;;13.02;4.97;;;20.40;99.90;;;;;;4871000;29;20259;-72
2023/06/01 10:05:55;;;;;;;17.83;5.35;;;20.50;99.90;;;;;;4869678;29;20227;-72
2023/06/01 10:08:38;;;;;;;10.95;5.38;;;20.50;99.90;;;;;;4882102;29;20574;-70
2023/06/01 10:11:06;;;;;;;27.10;4.88;;;20.20;99.90;;;;;;4884329;29;20220;-70
2023/06/01 10:13:35;;;;;;;9.70;5.35;;;20.40;99.90;;;;;;4883494;29;20292;-70
2023/06/01 10:16:03;;;;;;;7.47;4.68;;;20.60;99.90;;;;;;4885817;29;20227;-70
2023/06/01 10:18:32;;;;;;;13.82;4.45;;;20.60;99.90;;;;;;4872939;29;20201;-70
2023/06/01 10:21:00;;;;;;;22.00;4.50;;;19.80;99.90;;;;;;4889139;29;20201;-76
2023/06/01 10:23:28;;;;;;;6.82;5.25;;;20.80;99.90;;;;;;4868817;29;20433;-74
2023/06/01 10:26:04;;;;;;;6.72;3.65;;;19.60;99.90;;;;;;4888170;29;20239;-70
2023/06/01 10:28:35;;;;;;;9.20;4.47;;;19.80;99.90;;;;;;4871354;29;20584;-70
2023/06/01 10:31:34;;;;;;;5.88;3.28;;;19.80;99.90;;;;;;4885988;29;20349;-75
2023/06/01 10:34:02;;;;;;;22.25;3.80;;;20.90;99.90;;;;;;4886749;29;20762;-70
2023/06/01 10:36:51;;;;;;;6.53;3.55;;;21.60;99.90;;;;;;4890172;29;20559;-70
2023/06/01 10:39:33;;;;;;;6.00;3.85;;;21.80;99.90;;;;;;4889261;29;20206;-70
2023/06/01 10:42:14;;;;;;;9.10;4.30;;;22.20;99.90;;;;;;4888170;29;20196;-70
2023/06/01 10:44:50;;;;;;;9.20;4.50;;;22.50;99.90;;;;;;4872152;29;20235;-70
2023/06/01 10:47:20;;;;;;;6.80;3.03;;;21.90;99.90;;;;;;4888125;29;20685;-70
2023/06/01 10:49:50;;;;;;;6.28;3.80;;;22.20;99.90;;;;;;4867116;29;20207;-71
2023/06/01 10:52:26;;;;;;;10.30;3.88;;;22.10;99.90;;;;;;4887335;29;20212;-73
2023/06/01 10:54:55;;;;;;;12.73;5.00;;;22.50;99.90;;;;;;4887087;29;20208;-66
2023/06/01 10:57:23;;;;;;;9.95;4.35;;;21.50;99.90;;;;;;4871342;29;20212;-73
2023/06/01 11:00:13;;;;;;;60.75;6.40;;;22.00;99.90;;;;;;4888386;29;20276;-72
2023/06/01 11:03:01;;;;;;;6.38;2.50;;;21.30;99.90;;;;;;4886172;29;20295;-75
2023/06/01 11:05:52;;;;;;;7.68;4.75;;;21.60;99.90;;;;;;4888484;29;20276;-75
2023/06/01 11:08:22;;;;;;;9.52;5.00;;;21.10;99.90;;;;;;4873579;29;20204;-74
2023/06/01 11:10:52;;;;;;;9.20;4.97;;;20.90;99.90;;;;;;4888170;29;20651;-73
2023/06/01 11:13:27;;;;;;;6.10;4.30;;;20.60;99.90;;;;;;4872382;29;20984;-74
2023/06/01 11:16:07;;;;;;;7.95;4.00;;;20.40;99.90;;;;;;4885065;29;20822;-72
2023/06/01 11:18:58;;;;;;;7.38;4.03;;;19.60;99.90;;;;;;4874219;29;20205;-75
2023/06/01 11:21:29;;;;;;;9.00;4.05;;;20.30;99.90;;;;;;4887132;29;20523;-76
2023/06/01 11:23:58;;;;;;;5.40;3.95;;;20.50;99.90;;;;;;4889208;29;20563;-76
2023/06/01 11:26:30;;;;;;;4.35;3.20;;;20.60;99.90;;;;;;4879025;29;20770;-75
2023/06/01 11:29:06;;;;;;;5.75;3.72;;;20.70;99.90;;;;;;4884435;29;20669;-75
2023/06/01 11:31:37;;;;;;;4.55;3.10;;;21.00;99.90;;;;;;4887484;29;20850;-75
2023/06/01 11:34:04;;;;;;;6.65;4.05;;;20.80;99.90;;;;;;4872337;29;20785;-75
2023/06/01 11:36:40;;;;;;;7.18;3.92;;;21.00;99.90;;;;;;4872720;29;20209;-75
2023/06/01 11:39:21;;;;;;;5.78;3.88;;;20.90;99.90;;;;;;4868849;29;20204;-75
2023/06/01 11:41:49;;;;;;;12.57;4.03;;;20.50;99.90;;;;;;4885889;29;20656;-75
2023/06/01 11:44:17;;;;;;;10.07;4.43;;;20.40;99.90;;;;;;4885367;29;20251;-75
2023/06/01 11:46:55;;;;;;;5.75;4.43;;;20.70;99.90;;;;;;4865432;29;20220;-74
2023/06/01 11:49:23;;;;;;;6.75;4.22;;;20.90;99.90;;;;;;4885964;29;20205;-75
2023/06/01 11:51:51;;;;;;;7.22;4.35;;;20.60;99.90;;;;;;4871310;29;20197;-74
2023/06/01 11:54:26;;;;;;;9.35;3.53;;;20.30;99.90;;;;;;4866349;29;20216;-75
2023/06/01 11:56:55;;;;;;;7.80;3.72;;;20.50;99.90;;;;;;4884947;29;20366;-76
2023/06/01 11:59:25;;;;;;;5.90;3.75;;;20.90;99.90;;;;;;4887019;29;20197;-73
2023/06/01 12:01:53;;;;;;;6.13;3.58;;;20.90;99.90;;;;;;4870022;29;20699;-74
2023/06/01 12:04:25;;;;;;;6.20;3.75;;;20.40;99.90;;;;;;4865796;29;20232;-75
2023/06/01 12:07:05;;;;;;;4.07;3.30;;;20.60;99.90;;;;;;4870646;29;20201;-76
2023/06/01 12:09:34;;;;;;;6.68;3.28;;;20.30;99.90;;;;;;4894509;29;20647;-76
2023/06/01 12:12:02;;;;;;;6.97;4.00;;;20.70;99.90;;;;;;4888940;29;20392;-76
2023/06/01 12:14:30;;;;;;;6.55;3.63;;;20.90;99.90;;;;;;4888346;29;20299;-76
2023/06/01 12:17:04;;;;;;;6.75;3.70;;;20.80;99.90;;;;;;4889625;29;20212;-76
2023/06/01 12:19:32;;;;;;;4.65;3.45;;;20.90;99.90;;;;;;4875014;29;20215;-76
2023/06/01 12:21:59;;;;;;;10.02;4.50;;;21.10;99.90;;;;;;4889471;29;20198;-76
2023/06/01 12:24:28;;;;;;;9.32;3.28;;;21.00;99.90;;;;;;4873741;29;20276;-75
2023/06/01 12:26:59;;;;;;;7.55;3.80;;;20.60;99.90;;;;;;4886689;29;20200;-76
2023/06/01 12:29:41;;;;;;;4.80;3.08;;;20.80;99.90;;;;;;4884159;29;21010;-76
2023/06/01 12:32:09;;;;;;;8.07;3.80;;;21.00;99.90;;;;;;4889530;29;20690;-76
2023/06/01 12:34:39;;;;;;;5.15;3.33;;;20.80;99.90;;;;;;4874755;29;20221;-76
2023/06/01 12:37:16;;;;;;;7.25;3.25;;;20.70;99.90;;;;;;4877193;29;20568;-76
2023/06/01 12:39:53;;;;;;;4.45;2.78;;;20.00;99.90;;;;;;4891281;29;20293;-76
2023/06/01 12:42:42;;;;;;;5.82;3.00;;;20.30;99.90;;;;;;4889482;29;20550;-76
2023/06/01 12:45:09;;;;;;;3.95;2.95;;;20.70;99.90;;;;;;4880016;29;20276;-75
2023/06/01 12:47:38;;;;;;;4.32;2.92;;;20.90;99.90;;;;;;4889021;29;20245;-77
2023/06/01 12:50:10;;;;;;;6.93;3.83;;;20.40;99.90;;;;;;4873065;29;20214;-76
2023/06/01 12:52:39;;;;;;;5.15;3.33;;;20.00;99.90;;;;;;4890478;29;20217;-75
2023/06/01 12:55:08;;;;;;;6.53;3.83;;;20.20;99.90;;;;;;4859321;29;20201;-75